createdAt,value
2023-02-08T00:01:11.117Z,3.37
2023-02-08T00:03:39.088Z,3.43
2023-02-08T00:06:08.157Z,3.67
2023-02-08T00:08:38.092Z,3.55
2023-02-08T00:11:07.057Z,3.51
2023-02-08T00:13:35.226Z,3.66
2023-02-08T00:16:02.998Z,3.67
2023-02-08T00:18:31.032Z,3.80
2023-02-08T00:20:58.823Z,3.75
2023-02-08T00:23:27.244Z,3.80
2023-02-08T00:25:56.380Z,4.02
2023-02-08T00:28:24.375Z,3.90
2023-02-08T00:30:53.425Z,3.83
2023-02-08T00:33:21.278Z,3.64
2023-02-08T00:35:49.118Z,3.61
2023-02-08T00:38:16.908Z,3.50
2023-02-08T00:40:44.642Z,3.56
2023-02-08T00:43:13.783Z,3.63
2023-02-08T00:45:41.550Z,3.64
2023-02-08T00:48:09.264Z,3.76
2023-02-08T00:50:37.033Z,3.76
2023-02-08T00:53:05.197Z,3.53
2023-02-08T00:55:33.036Z,3.67
2023-02-08T00:58:00.881Z,3.76
2023-02-08T01:00:29.997Z,3.78
2023-02-08T01:02:57.818Z,3.57
2023-02-08T01:05:25.628Z,3.44
2023-02-08T01:07:53.401Z,3.75
2023-02-08T01:10:21.105Z,3.82
2023-02-08T01:12:48.856Z,3.95
2023-02-08T01:15:16.562Z,4.02
2023-02-08T01:17:45.687Z,4.14
2023-02-08T01:20:13.445Z,3.91
2023-02-08T01:22:41.588Z,3.42
2023-02-08T01:25:09.704Z,3.17
2023-02-08T01:27:37.563Z,3.14
2023-02-08T01:30:05.871Z,3.00
2023-02-08T01:32:33.657Z,2.58
2023-02-08T01:35:02.828Z,2.72
2023-02-08T01:37:30.611Z,2.80
2023-02-08T01:39:58.320Z,2.77
2023-02-08T01:42:26.237Z,2.83
2023-02-08T01:45:28.864Z,2.78
2023-02-08T01:48:03.953Z,2.72
2023-02-08T01:50:38.139Z,2.65
2023-02-08T01:53:06.357Z,2.81
2023-02-08T01:55:37.943Z,2.50
2023-02-08T01:58:10.104Z,2.63
2023-02-08T02:00:38.147Z,2.70
2023-02-08T02:03:07.097Z,2.59
2023-02-08T02:05:42.470Z,2.70
2023-02-08T02:08:12.059Z,2.83
2023-02-08T02:10:41.730Z,3.18
2023-02-08T02:13:13.568Z,3.10
2023-02-08T02:15:41.756Z,2.99
2023-02-08T02:18:10.010Z,2.88
2023-02-08T02:20:49.099Z,2.63
2023-02-08T02:23:49.314Z,2.46
2023-02-08T02:26:52.810Z,2.66
2023-02-08T02:29:57.804Z,2.29
2023-02-08T02:32:39.437Z,2.39
2023-02-08T02:35:14.789Z,2.66
2023-02-08T02:37:55.081Z,2.92
2023-02-08T02:40:30.519Z,2.81
2023-02-08T02:43:24.767Z,2.56
2023-02-08T02:46:01.710Z,2.42
2023-02-08T02:48:40.003Z,2.43
2023-02-08T02:51:11.118Z,2.45
2023-02-08T02:53:46.001Z,2.25
2023-02-08T02:56:18.501Z,2.34
2023-02-08T02:58:46.647Z,2.41
2023-02-08T03:01:14.731Z,2.44
2023-02-08T03:03:43.823Z,2.33
2023-02-08T03:06:15.912Z,2.29
2023-02-08T03:09:02.558Z,2.47
2023-02-08T03:11:33.996Z,2.48
2023-02-08T03:14:20.535Z,2.54
2023-02-08T03:17:03.914Z,2.84
2023-02-08T03:19:40.066Z,2.99
2023-02-08T03:22:14.374Z,3.08
2023-02-08T03:24:50.700Z,2.94
2023-02-08T03:27:28.885Z,2.64
2023-02-08T03:30:01.849Z,2.73
2023-02-08T03:32:39.952Z,2.62
2023-02-08T03:35:16.186Z,2.60
2023-02-08T03:37:48.096Z,2.34
2023-02-08T03:40:21.733Z,2.06
2023-02-08T03:42:52.626Z,2.05
2023-02-08T03:45:24.951Z,2.08
2023-02-08T03:47:57.985Z,2.09
2023-02-08T03:50:32.192Z,2.08
2023-02-08T03:52:59.952Z,2.11
2023-02-08T03:55:30.735Z,2.33
2023-02-08T03:58:04.668Z,2.40
2023-02-08T04:00:37.836Z,2.16
2023-02-08T04:03:11.959Z,2.09
2023-02-08T04:05:41.440Z,2.21
2023-02-08T04:08:09.423Z,2.07
2023-02-08T04:10:37.300Z,2.00
2023-02-08T04:13:05.536Z,1.91
2023-02-08T04:15:33.366Z,2.02
2023-02-08T04:18:01.196Z,1.94
2023-02-08T04:20:29.052Z,1.80
2023-02-08T04:22:58.284Z,1.77
2023-02-08T04:25:26.263Z,1.52
2023-02-08T04:27:54.590Z,1.71
2023-02-08T04:30:22.400Z,1.76
2023-02-08T04:32:50.158Z,1.75
2023-02-08T04:35:18.053Z,1.79
2023-02-08T04:37:45.795Z,1.79
2023-02-08T04:40:14.974Z,1.74
2023-02-08T04:42:42.693Z,1.57
2023-02-08T04:45:11.162Z,1.73
2023-02-08T04:47:39.007Z,1.79
2023-02-08T04:50:07.553Z,1.59
2023-02-08T04:52:35.253Z,1.73
2023-02-08T04:55:03.055Z,1.94
2023-02-08T04:57:32.597Z,1.88
2023-02-08T05:00:00.658Z,1.87
2023-02-08T05:02:28.657Z,2.00
2023-02-08T05:04:56.427Z,1.86
2023-02-08T05:07:24.212Z,1.59
2023-02-08T05:09:52.020Z,1.48
2023-02-08T05:12:19.793Z,1.51
2023-02-08T05:14:48.999Z,1.35
2023-02-08T05:17:16.731Z,1.23
2023-02-08T05:19:44.564Z,1.44
2023-02-08T05:22:12.400Z,1.51
2023-02-08T05:24:40.171Z,1.44
2023-02-08T05:27:07.898Z,1.65
2023-02-08T05:29:35.626Z,1.62
2023-02-08T05:32:04.986Z,1.72
2023-02-08T05:34:32.805Z,1.45
2023-02-08T05:37:00.872Z,1.54
2023-02-08T05:39:28.771Z,1.67
2023-02-08T05:41:56.603Z,1.59
2023-02-08T05:44:24.359Z,1.62
2023-02-08T05:46:52.178Z,1.63
2023-02-08T05:49:21.316Z,1.66
2023-02-08T05:51:50.310Z,1.70
2023-02-08T05:54:18.792Z,1.87
2023-02-08T05:56:46.580Z,1.77
2023-02-08T05:59:14.384Z,1.76
2023-02-08T06:01:42.225Z,1.75
2023-02-08T06:04:10.025Z,1.55
2023-02-08T06:06:39.138Z,1.39
2023-02-08T06:09:06.887Z,1.42
2023-02-08T06:11:36.107Z,1.39
2023-02-08T06:14:04.061Z,1.36
2023-02-08T06:16:32.246Z,1.25
2023-02-08T06:19:00.166Z,1.19
2023-02-08T06:21:28.207Z,1.16
2023-02-08T06:23:57.270Z,1.18
2023-02-08T06:26:25.092Z,1.18
2023-02-08T06:28:52.959Z,1.20
2023-02-08T06:31:20.679Z,1.29
2023-02-08T06:33:48.488Z,1.10
2023-02-08T06:36:16.352Z,0.83
2023-02-08T06:38:44.280Z,0.74
2023-02-08T06:41:13.470Z,0.96
2023-02-08T06:43:41.379Z,1.05
2023-02-08T06:46:09.553Z,0.89
2023-02-08T06:48:37.851Z,0.86
2023-02-08T06:51:05.933Z,0.88
2023-02-08T06:53:33.658Z,1.02
2023-02-08T06:56:01.487Z,0.95
2023-02-08T06:58:31.266Z,1.02
2023-02-08T07:00:58.988Z,1.09
2023-02-08T07:03:26.726Z,0.88
2023-02-08T07:06:04.579Z,0.93
2023-02-08T07:08:33.182Z,0.84
2023-02-08T07:11:00.941Z,0.82
2023-02-08T07:13:30.080Z,0.82
2023-02-08T07:15:57.877Z,0.89
2023-02-08T07:18:25.668Z,0.96
2023-02-08T07:20:53.511Z,0.87
2023-02-08T07:23:21.255Z,1.01
2023-02-08T07:25:58.261Z,1.30
2023-02-08T07:28:26.646Z,1.35
2023-02-08T07:30:56.001Z,1.20
2023-02-08T07:33:24.959Z,1.31
2023-02-08T07:35:53.037Z,1.22
2023-02-08T07:38:21.057Z,1.25
2023-02-08T07:40:48.894Z,1.33
2023-02-08T07:43:16.924Z,1.17
2023-02-08T07:45:44.730Z,1.26
2023-02-08T07:48:13.835Z,1.20
2023-02-08T07:50:41.760Z,1.35
2023-02-08T07:53:09.669Z,1.37
2023-02-08T07:55:37.364Z,1.15
2023-02-08T07:58:05.153Z,1.12
2023-02-08T08:00:32.957Z,1.13
2023-02-08T08:03:01.442Z,1.24
2023-02-08T08:05:30.627Z,1.19
2023-02-08T08:07:58.409Z,1.38
2023-02-08T08:10:26.270Z,1.43
2023-02-08T08:12:54.120Z,1.60
2023-02-08T08:15:21.909Z,1.71
2023-02-08T08:17:49.663Z,1.68
2023-02-08T08:20:17.966Z,1.76
2023-02-08T08:22:47.320Z,1.69
2023-02-08T08:25:15.432Z,1.74
2023-02-08T08:27:43.207Z,1.81
2023-02-08T08:30:13.212Z,2.10
2023-02-08T08:32:40.999Z,2.53
2023-02-08T08:35:09.266Z,2.61
2023-02-08T08:37:37.953Z,2.63
2023-02-08T08:40:08.494Z,2.41
2023-02-08T08:42:37.259Z,2.31
2023-02-08T08:45:05.281Z,2.32
2023-02-08T08:47:33.780Z,2.44
2023-02-08T08:50:02.072Z,2.70
2023-02-08T08:52:30.254Z,2.74
2023-02-08T08:54:58.011Z,2.77
2023-02-08T08:57:27.740Z,2.79
2023-02-08T08:59:55.868Z,2.91
2023-02-08T09:02:23.942Z,2.94
2023-02-08T09:04:51.967Z,3.02
2023-02-08T09:07:19.889Z,3.28
2023-02-08T09:09:48.660Z,3.47
2023-02-08T09:12:16.871Z,3.61
2023-02-08T09:14:45.987Z,3.77
2023-02-08T09:17:13.832Z,4.02
2023-02-08T09:19:42.515Z,4.15
2023-02-08T09:22:10.359Z,4.34
2023-02-08T09:24:38.311Z,4.45
2023-02-08T09:27:06.076Z,4.56
2023-02-08T09:29:34.333Z,4.70
2023-02-08T09:32:03.648Z,4.68
2023-02-08T09:34:31.388Z,4.60
2023-02-08T09:36:59.144Z,4.61
2023-02-08T09:39:27.256Z,4.62
2023-02-08T09:42:16.593Z,4.67
2023-02-08T09:44:56.699Z,4.72
2023-02-08T09:47:31.219Z,4.92
2023-02-08T09:50:03.792Z,5.07
2023-02-08T09:52:38.442Z,5.22
2023-02-08T09:55:21.899Z,5.18
2023-02-08T09:57:52.723Z,5.34
2023-02-08T10:00:26.741Z,5.29
2023-02-08T10:02:59.737Z,5.14
2023-02-08T10:05:29.667Z,5.65
2023-02-08T10:07:58.582Z,5.69
2023-02-08T10:10:42.764Z,6.18
2023-02-08T10:13:40.853Z,6.38
2023-02-08T10:16:19.478Z,6.65
2023-02-08T10:18:53.442Z,6.80
2023-02-08T10:21:35.253Z,6.99
2023-02-08T10:24:23.557Z,6.74
2023-02-08T10:27:03.015Z,6.54
2023-02-08T10:29:51.317Z,6.89
2023-02-08T10:32:35.267Z,7.13
2023-02-08T10:35:07.480Z,6.65
2023-02-08T10:37:38.718Z,7.21
2023-02-08T10:40:21.996Z,7.59
2023-02-08T10:42:57.638Z,7.88
2023-02-08T10:45:30.547Z,7.99
2023-02-08T10:48:02.848Z,8.16
2023-02-08T10:50:36.759Z,8.29
2023-02-08T10:53:04.833Z,8.40
2023-02-08T10:55:36.639Z,8.21
2023-02-08T10:58:07.638Z,8.41
2023-02-08T11:00:39.230Z,8.53
2023-02-08T11:03:18.930Z,8.31
2023-02-08T11:05:48.327Z,8.38
2023-02-08T11:08:19.830Z,8.46
2023-02-08T11:10:58.375Z,8.54
2023-02-08T11:13:34.691Z,8.75
2023-02-08T11:16:06.282Z,8.87
2023-02-08T11:18:37.076Z,9.08
2023-02-08T11:21:10.588Z,9.12
2023-02-08T11:23:40.782Z,9.09
2023-02-08T11:26:18.444Z,8.30
2023-02-08T11:28:59.441Z,8.47
2023-02-08T11:31:27.664Z,8.78
2023-02-08T11:34:04.224Z,9.20
2023-02-08T11:36:35.602Z,9.52
2023-02-08T11:39:15.928Z,9.60
2023-02-08T11:41:45.719Z,9.73
2023-02-08T11:44:23.546Z,9.57
2023-02-08T11:46:52.966Z,9.78
2023-02-08T11:49:25.543Z,9.70
2023-02-08T11:51:55.174Z,9.88
2023-02-08T11:54:39.323Z,9.37
2023-02-08T11:57:15.588Z,9.13
2023-02-08T11:59:43.374Z,9.64
2023-02-08T12:02:35.660Z,9.54
2023-02-08T12:05:04.688Z,9.69
2023-02-08T12:07:45.487Z,9.79
2023-02-08T12:10:29.633Z,9.86
2023-02-08T12:13:08.250Z,10.00
2023-02-08T12:15:58.261Z,9.79
2023-02-08T12:18:50.361Z,9.41
2023-02-08T12:21:22.891Z,8.97
2023-02-08T12:23:57.703Z,9.23
2023-02-08T12:26:51.438Z,9.09
2023-02-08T12:29:47.242Z,9.52
2023-02-08T12:32:42.714Z,9.30
2023-02-08T12:35:45.844Z,9.07
2023-02-08T12:38:52.422Z,9.36
2023-02-08T12:41:23.996Z,9.71
2023-02-08T12:44:02.381Z,9.99
2023-02-08T12:46:50.062Z,10.12
2023-02-08T12:49:31.455Z,10.20
2023-02-08T12:52:08.339Z,10.33
2023-02-08T12:54:42.526Z,9.87
2023-02-08T12:57:15.622Z,9.96
2023-02-08T12:59:47.745Z,9.86
2023-02-08T13:02:19.138Z,9.80
2023-02-08T13:04:50.724Z,9.74
2023-02-08T13:07:24.559Z,10.41
2023-02-08T13:10:02.595Z,10.40
2023-02-08T13:12:35.127Z,10.48
2023-02-08T13:15:24.772Z,10.77
2023-02-08T13:18:00.566Z,11.14
2023-02-08T13:20:39.050Z,10.93
2023-02-08T13:23:16.544Z,11.14
2023-02-08T13:25:45.626Z,11.09
2023-02-08T13:28:20.834Z,10.78
2023-02-08T13:30:56.730Z,10.63
2023-02-08T13:33:32.858Z,11.16
2023-02-08T13:36:00.959Z,10.99
2023-02-08T13:38:32.189Z,10.92
2023-02-08T13:41:06.267Z,11.34
2023-02-08T13:43:40.447Z,11.02
2023-02-08T13:46:09.552Z,10.66
2023-02-08T13:48:47.009Z,11.12
2023-02-08T13:51:51.873Z,10.86
2023-02-08T13:54:19.761Z,11.27
2023-02-08T13:56:49.559Z,11.27
2023-02-08T13:59:37.009Z,10.77
2023-02-08T14:02:23.103Z,11.40
2023-02-08T14:04:52.629Z,11.60
2023-02-08T14:07:30.083Z,11.82
2023-02-08T14:10:09.649Z,12.33
2023-02-08T14:12:43.633Z,11.80
2023-02-08T14:15:33.298Z,11.74
2023-02-08T14:18:02.728Z,11.27
2023-02-08T14:20:34.899Z,11.23
2023-02-08T14:23:04.541Z,11.51
2023-02-08T14:25:43.091Z,11.94
2023-02-08T14:28:26.532Z,11.95
2023-02-08T14:30:59.030Z,11.95
2023-02-08T14:33:29.702Z,11.94
2023-02-08T14:35:59.257Z,12.20
2023-02-08T14:38:55.316Z,11.83
2023-02-08T14:42:03.771Z,11.36
2023-02-08T14:45:01.806Z,12.26
2023-02-08T14:47:57.917Z,11.98
2023-02-08T14:50:38.530Z,11.66
2023-02-08T14:53:17.416Z,11.77
2023-02-08T14:55:51.423Z,11.38
2023-02-08T14:58:28.839Z,11.42
2023-02-08T15:00:59.393Z,11.95
2023-02-08T15:03:32.511Z,12.07
2023-02-08T15:06:34.064Z,11.64
2023-02-08T15:09:02.342Z,11.82
2023-02-08T15:11:32.924Z,12.29
2023-02-08T15:14:04.045Z,12.17
2023-02-08T15:16:36.113Z,11.81
2023-02-08T15:19:06.981Z,11.76
2023-02-08T15:21:37.267Z,11.94
2023-02-08T15:24:13.472Z,11.68
2023-02-08T15:26:45.870Z,11.71
2023-02-08T15:29:24.625Z,11.57
2023-02-08T15:31:54.998Z,11.91
2023-02-08T15:34:26.253Z,12.02
2023-02-08T15:36:56.183Z,11.74
2023-02-08T15:39:34.776Z,11.11
2023-02-08T15:42:03.037Z,11.44
2023-02-08T15:44:32.988Z,11.55
2023-02-08T15:47:03.941Z,11.31
2023-02-08T15:49:39.055Z,11.68
2023-02-08T15:52:08.395Z,11.59
2023-02-08T15:54:36.224Z,11.54
2023-02-08T15:57:07.386Z,11.36
2023-02-08T15:59:39.184Z,11.49
2023-02-08T16:02:23.294Z,11.10
2023-02-08T16:04:52.468Z,10.77
2023-02-08T16:07:26.881Z,11.16
2023-02-08T16:09:55.757Z,11.08
2023-02-08T16:12:25.766Z,11.03
2023-02-08T16:14:56.490Z,11.11
2023-02-08T16:17:38.007Z,11.08
2023-02-08T16:20:30.101Z,10.89
2023-02-08T16:23:01.336Z,10.98
2023-02-08T16:25:45.417Z,11.00
2023-02-08T16:28:26.804Z,10.71
2023-02-08T16:30:55.263Z,11.11
2023-02-08T16:33:23.234Z,11.14
2023-02-08T16:35:52.959Z,11.30
2023-02-08T16:38:23.456Z,11.25
2023-02-08T16:40:53.372Z,11.09
2023-02-08T16:43:24.437Z,10.88
2023-02-08T16:46:22.081Z,10.95
2023-02-08T16:48:51.691Z,11.01
2023-02-08T16:51:22.959Z,10.94
2023-02-08T16:53:53.027Z,10.67
2023-02-08T16:56:21.011Z,10.48
2023-02-08T16:58:48.778Z,10.52
2023-02-08T17:01:17.009Z,10.67
2023-02-08T17:03:44.824Z,10.57
2023-02-08T17:06:27.352Z,10.55
2023-02-08T17:08:55.131Z,10.38
2023-02-08T17:11:23.379Z,10.24
2023-02-08T17:13:52.363Z,10.33
2023-02-08T17:16:22.706Z,10.24
2023-02-08T17:18:51.389Z,10.11
2023-02-08T17:21:19.397Z,10.03
2023-02-08T17:23:48.796Z,10.01
2023-02-08T17:26:19.114Z,9.90
2023-02-08T17:28:47.025Z,9.83
2023-02-08T17:31:15.810Z,9.82
2023-02-08T17:33:44.040Z,9.76
2023-02-08T17:36:14.244Z,9.66
2023-02-08T17:38:42.917Z,9.62
2023-02-08T17:41:15.760Z,9.49
2023-02-08T17:43:43.493Z,9.42
2023-02-08T17:46:11.919Z,9.41
2023-02-08T17:48:39.676Z,9.30
2023-02-08T17:51:11.116Z,9.33
2023-02-08T17:53:40.830Z,9.13
2023-02-08T17:56:09.608Z,8.97
2023-02-08T17:58:38.768Z,8.84
2023-02-08T18:01:07.120Z,8.74
2023-02-08T18:03:35.164Z,8.56
2023-02-08T18:06:03.591Z,8.28
2023-02-08T18:08:31.287Z,8.30
2023-02-08T18:11:04.210Z,8.03
2023-02-08T18:13:31.973Z,7.96
2023-02-08T18:16:07.877Z,7.94
2023-02-08T18:18:35.665Z,8.04
2023-02-08T18:21:03.402Z,8.12
2023-02-08T18:23:31.111Z,8.15
2023-02-08T18:26:05.643Z,8.01
2023-02-08T18:28:33.420Z,7.91
2023-02-08T18:31:09.059Z,7.73
2023-02-08T18:33:37.794Z,7.18
2023-02-08T18:36:06.987Z,7.31
2023-02-08T18:38:35.005Z,7.39
2023-02-08T18:41:02.736Z,7.36
2023-02-08T18:43:30.515Z,7.49
2023-02-08T18:46:00.847Z,7.64
2023-02-08T18:48:30.348Z,7.66
2023-02-08T18:50:59.147Z,7.99
2023-02-08T18:53:28.431Z,7.96
2023-02-08T18:55:57.377Z,7.59
2023-02-08T18:58:25.802Z,7.62
2023-02-08T19:00:53.864Z,7.83
2023-02-08T19:03:23.240Z,7.75
2023-02-08T19:05:52.342Z,7.60
2023-02-08T19:08:20.538Z,7.58
2023-02-08T19:10:48.376Z,7.48
2023-02-08T19:13:16.676Z,7.37
2023-02-08T19:15:45.552Z,7.14
2023-02-08T19:18:13.459Z,6.85
2023-02-08T19:20:41.212Z,6.83
2023-02-08T19:23:10.321Z,6.77
2023-02-08T19:25:39.965Z,6.58
2023-02-08T19:28:08.394Z,6.62
2023-02-08T19:30:36.235Z,6.53
2023-02-08T19:33:04.271Z,6.57
2023-02-08T19:35:31.997Z,6.41
2023-02-08T19:37:59.789Z,5.88
2023-02-08T19:40:28.920Z,5.81
2023-02-08T19:42:56.695Z,5.85
2023-02-08T19:45:25.150Z,5.82
2023-02-08T19:47:53.325Z,6.15
2023-02-08T19:50:21.129Z,6.42
2023-02-08T19:52:48.893Z,6.47
2023-02-08T19:55:17.381Z,6.36
2023-02-08T19:57:46.526Z,6.35
2023-02-08T20:00:23.328Z,6.34
2023-02-08T20:02:51.816Z,6.35
2023-02-08T20:05:19.595Z,5.87
2023-02-08T20:07:47.338Z,5.72
2023-02-08T20:10:15.084Z,5.69
2023-02-08T20:12:42.863Z,5.70
2023-02-08T20:15:12.041Z,5.84
2023-02-08T20:17:39.948Z,6.05
2023-02-08T20:20:09.234Z,5.92
2023-02-08T20:22:36.959Z,5.76
2023-02-08T20:25:05.033Z,5.72
2023-02-08T20:27:32.821Z,5.86
2023-02-08T20:30:00.598Z,5.61
2023-02-08T20:32:30.071Z,5.57
2023-02-08T20:34:59.682Z,5.73
2023-02-08T20:37:27.750Z,5.73
2023-02-08T20:39:55.685Z,5.78
2023-02-08T20:42:23.724Z,5.59
2023-02-08T20:44:51.828Z,5.44
2023-02-08T20:47:21.708Z,5.18
2023-02-08T20:49:51.404Z,5.18
2023-02-08T20:52:19.678Z,5.01
2023-02-08T20:54:47.802Z,5.02
2023-02-08T20:57:18.090Z,4.99
2023-02-08T20:59:46.360Z,5.00
2023-02-08T21:02:17.943Z,5.06
2023-02-08T21:04:45.823Z,5.05
2023-02-08T21:07:16.194Z,4.86
2023-02-08T21:09:43.940Z,4.86
2023-02-08T21:12:12.000Z,4.69
2023-02-08T21:14:40.481Z,4.80
2023-02-08T21:17:08.270Z,4.81
2023-02-08T21:19:36.036Z,4.78
2023-02-08T21:22:04.205Z,4.77
2023-02-08T21:24:33.795Z,4.82
2023-02-08T21:27:02.030Z,4.77
2023-02-08T21:29:32.553Z,4.87
2023-02-08T21:32:00.475Z,4.80
2023-02-08T21:34:28.496Z,4.88
2023-02-08T21:36:56.424Z,4.77
2023-02-08T21:39:24.246Z,4.73
2023-02-08T21:41:55.450Z,4.78
2023-02-08T21:44:23.270Z,4.60
2023-02-08T21:46:51.073Z,4.48
2023-02-08T21:49:36.090Z,4.56
2023-02-08T21:52:21.524Z,4.75
2023-02-08T21:54:53.442Z,4.86
2023-02-08T21:57:24.660Z,4.75
2023-02-08T21:59:55.045Z,4.55
2023-02-08T22:02:25.785Z,4.62
2023-02-08T22:04:55.009Z,4.63
2023-02-08T22:07:22.983Z,4.54
2023-02-08T22:09:51.067Z,4.42
2023-02-08T22:12:21.680Z,4.42
2023-02-08T22:14:51.803Z,4.24
2023-02-08T22:17:19.728Z,4.31
2023-02-08T22:19:47.677Z,4.45
2023-02-08T22:22:15.528Z,4.72
2023-02-08T22:24:43.396Z,4.73
2023-02-08T22:27:12.752Z,4.65
2023-02-08T22:29:40.581Z,4.74
2023-02-08T22:32:10.988Z,4.57
2023-02-08T22:34:39.127Z,4.54
2023-02-08T22:37:06.985Z,4.54
2023-02-08T22:39:35.851Z,4.43
2023-02-08T22:42:08.183Z,4.48
2023-02-08T22:44:36.135Z,4.39
2023-02-08T22:47:04.704Z,4.37
2023-02-08T22:49:34.138Z,4.30
2023-02-08T22:52:02.453Z,4.32
2023-02-08T22:54:30.169Z,4.25
2023-02-08T22:56:57.991Z,4.07
2023-02-08T22:59:26.087Z,4.05
2023-02-08T23:01:53.913Z,4.05
2023-02-08T23:04:22.308Z,4.05
2023-02-08T23:06:51.742Z,4.06
2023-02-08T23:09:19.525Z,4.26
2023-02-08T23:11:47.730Z,4.11
2023-02-08T23:14:16.161Z,3.90
2023-02-08T23:28:26.078Z,3.83
2023-02-08T23:30:53.868Z,3.84
2023-02-08T23:33:21.657Z,3.77
2023-02-08T23:35:49.479Z,3.70
2023-02-08T23:38:17.327Z,3.76
2023-02-08T23:40:45.270Z,3.76
2023-02-08T23:43:13.259Z,3.51
2023-02-08T23:45:42.441Z,3.49
2023-02-08T23:48:10.200Z,3.51
2023-02-08T23:50:37.998Z,3.55
2023-02-08T23:53:05.751Z,3.50
2023-02-08T23:55:33.552Z,3.33
2023-02-08T23:58:01.293Z,3.28
